Time;durP1;ratioP1;P1;durP2;ratioP2;P2;SDS_P1;SDS_P2;PMS_P1;PMS_P2;Temp;Humidity;BMP_temperature;BMP_pressure;BME280_temperature;BME280_humidity;BME280_pressure;Samples;Min_cycle;Max_cycle;Signal;HPM_P1;HPM_P2
2022/08/27 00:00:09;;;;;;;51.03;38.20;;;18.90;99.90;;;;;;5035893;28;20952;-85
2022/08/27 00:02:34;;;;;;;61.57;37.10;;;18.90;99.90;;;;;;5024210;28;20429;-85
2022/08/27 00:05:01;;;;;;;61.70;36.17;;;18.80;99.90;;;;;;5031723;28;20415;-85
2022/08/27 00:07:27;;;;;;;60.43;36.03;;;18.80;99.90;;;;;;5019961;28;20461;-85
2022/08/27 00:09:52;;;;;;;62.30;39.23;;;18.80;99.90;;;;;;5034345;28;20864;-85
2022/08/27 00:12:18;;;;;;;58.30;37.80;;;18.70;99.90;;;;;;5029435;28;20501;-84
2022/08/27 00:14:44;;;;;;;62.17;38.73;;;18.70;99.90;;;;;;5019294;28;20190;-85
2022/08/27 00:17:10;;;;;;;57.50;37.10;;;18.70;99.90;;;;;;5024447;28;20284;-85
2022/08/27 00:19:35;;;;;;;54.67;38.27;;;18.60;99.90;;;;;;5026763;28;20774;-85
2022/08/27 00:22:02;;;;;;;53.50;36.30;;;18.60;99.90;;;;;;5027738;28;20410;-85
2022/08/27 00:24:27;;;;;;;60.13;40.43;;;18.60;99.90;;;;;;5025411;28;20241;-85
2022/08/27 00:26:53;;;;;;;58.73;39.97;;;18.60;99.90;;;;;;5019261;28;20435;-85
2022/08/27 00:29:19;;;;;;;82.30;44.40;;;18.60;99.90;;;;;;5027316;28;20224;-85
2022/08/27 00:31:45;;;;;;;68.60;41.83;;;18.60;99.90;;;;;;5026211;28;20198;-85
2022/08/27 00:34:10;;;;;;;70.50;44.10;;;18.60;99.90;;;;;;5018909;28;20919;-85
2022/08/27 00:36:36;;;;;;;70.10;43.57;;;18.60;99.90;;;;;;5035558;28;20503;-85
2022/08/27 00:39:02;;;;;;;72.30;43.63;;;18.50;99.90;;;;;;5018433;28;20258;-85
2022/08/27 00:41:28;;;;;;;71.27;44.60;;;18.50;99.90;;;;;;5018033;28;20260;-85
2022/08/27 00:43:56;;;;;;;80.10;45.03;;;18.50;99.90;;;;;;5027454;28;20424;-85
2022/08/27 00:46:37;;;;;;;75.57;45.37;;;18.40;99.90;;;;;;5017252;28;21016;-85
2022/08/27 00:49:19;;;;;;;74.47;45.33;;;18.40;99.90;;;;;;5016032;28;20440;-85
2022/08/27 00:52:00;;;;;;;84.17;48.37;;;18.40;99.90;;;;;;5018583;28;20935;-85
2022/08/27 00:54:26;;;;;;;77.73;46.53;;;18.30;99.90;;;;;;5026343;28;20495;-85
2022/08/27 00:56:53;;;;;;;77.67;46.20;;;18.30;99.90;;;;;;5025225;28;20956;-85
2022/08/27 00:59:21;;;;;;;86.17;48.20;;;18.30;99.90;;;;;;5018029;28;20452;-85
2022/08/27 01:04:34;;;;;;;86.83;48.20;;;18.30;99.90;;;;;;5020248;28;20411;-85
2022/08/27 01:07:01;;;;;;;85.83;50.87;;;18.30;99.90;;;;;;5027313;28;20477;-85
2022/08/27 01:09:27;;;;;;;91.33;49.43;;;18.30;99.90;;;;;;5030710;28;21151;-85
2022/08/27 01:11:55;;;;;;;83.57;49.70;;;18.30;99.90;;;;;;5022623;28;20536;-85
2022/08/27 01:14:21;;;;;;;92.43;49.63;;;18.30;99.90;;;;;;5022056;28;20479;-85
2022/08/27 01:16:53;;;;;;;83.87;47.87;;;18.20;99.90;;;;;;5024789;28;20473;-85
2022/08/27 01:19:37;;;;;;;74.47;45.20;;;18.20;99.90;;;;;;5020132;28;20393;-85
2022/08/27 01:22:31;;;;;;;76.17;44.23;;;18.20;99.90;;;;;;5029681;28;20444;-85
2022/08/27 01:25:03;;;;;;;76.13;46.20;;;18.20;99.90;;;;;;5024729;28;20801;-85
2022/08/27 01:27:30;;;;;;;72.03;41.23;;;18.20;99.90;;;;;;5038285;28;20421;-85
2022/08/27 01:29:56;;;;;;;68.50;42.17;;;18.20;99.90;;;;;;5022059;28;20440;-85
2022/08/27 01:32:27;;;;;;;71.43;41.50;;;18.20;99.90;;;;;;5017907;28;20527;-85
2022/08/27 01:34:52;;;;;;;68.33;43.33;;;18.10;99.90;;;;;;5034949;28;20491;-85
2022/08/27 01:37:19;;;;;;;72.07;43.43;;;18.10;99.90;;;;;;5023840;28;20472;-85
2022/08/27 01:39:45;;;;;;;67.67;42.70;;;18.10;99.90;;;;;;5022608;28;20498;-85
2022/08/27 01:42:16;;;;;;;78.57;45.33;;;18.10;99.90;;;;;;5023451;28;20451;-85
2022/08/27 01:44:49;;;;;;;68.77;44.07;;;18.10;99.90;;;;;;5021548;28;20482;-85
2022/08/27 01:47:16;;;;;;;73.37;41.80;;;18.20;99.90;;;;;;5017955;28;20536;-85
2022/08/27 01:49:41;;;;;;;80.17;44.63;;;18.20;99.90;;;;;;5018329;28;20448;-85
2022/08/27 01:52:07;;;;;;;70.53;45.37;;;18.20;99.90;;;;;;5035968;28;20439;-85
2022/08/27 01:54:33;;;;;;;73.63;44.13;;;18.20;99.90;;;;;;5025307;28;20194;-85
2022/08/27 01:56:58;;;;;;;73.23;44.90;;;18.20;99.90;;;;;;5021159;28;20672;-85
2022/08/27 01:59:24;;;;;;;77.27;45.27;;;18.20;99.90;;;;;;5017672;28;20340;-85
2022/08/27 02:01:51;;;;;;;70.73;44.90;;;18.10;99.90;;;;;;5017791;28;20174;-85
2022/08/27 02:04:18;;;;;;;73.87;45.47;;;18.10;99.90;;;;;;5032867;28;20178;-85
2022/08/27 02:06:43;;;;;;;78.70;44.30;;;18.10;99.90;;;;;;5017804;28;20475;-85
2022/08/27 02:09:09;;;;;;;76.20;42.63;;;18.20;99.90;;;;;;5023230;28;20447;-85
2022/08/27 02:11:34;;;;;;;74.30;44.97;;;18.20;99.90;;;;;;5023457;28;20212;-85
2022/08/27 02:13:59;;;;;;;76.03;43.07;;;18.20;99.90;;;;;;5031048;28;20261;-85
2022/08/27 02:16:25;;;;;;;76.17;45.60;;;18.20;99.90;;;;;;5028136;28;20190;-85
2022/08/27 02:18:53;;;;;;;76.40;45.50;;;18.20;99.90;;;;;;5019518;28;20255;-85
2022/08/27 02:21:19;;;;;;;66.67;41.43;;;18.20;99.90;;;;;;5022629;28;20178;-85
2022/08/27 02:23:44;;;;;;;76.13;42.93;;;18.20;99.90;;;;;;5022056;28;20420;-85
2022/08/27 02:26:10;;;;;;;75.03;43.97;;;18.20;99.90;;;;;;5029237;28;20421;-85
2022/08/27 02:28:36;;;;;;;70.00;41.80;;;18.30;99.90;;;;;;5020914;28;20209;-85
2022/08/27 02:31:02;;;;;;;72.50;44.63;;;18.30;99.90;;;;;;5017572;28;20189;-85
2022/08/27 02:33:28;;;;;;;65.93;41.57;;;18.30;99.90;;;;;;5021094;28;20178;-85
2022/08/27 02:35:54;;;;;;;73.97;42.30;;;18.30;99.90;;;;;;5017986;28;20429;-85
2022/08/27 02:38:19;;;;;;;67.70;42.70;;;18.30;99.90;;;;;;5034553;28;20257;-85
2022/08/27 02:40:45;;;;;;;80.33;42.30;;;18.30;99.90;;;;;;5022763;28;21011;-85
2022/08/27 02:43:11;;;;;;;70.77;41.03;;;18.30;99.90;;;;;;5021780;28;20360;-85
2022/08/27 02:45:36;;;;;;;69.27;42.90;;;18.30;99.90;;;;;;5020144;28;20436;-85
2022/08/27 02:48:04;;;;;;;76.30;44.13;;;18.30;99.90;;;;;;5017859;28;20210;-85
2022/08/27 02:50:30;;;;;;;66.90;41.43;;;18.40;99.90;;;;;;5023395;28;20201;-85
2022/08/27 02:52:56;;;;;;;70.47;41.57;;;18.40;99.90;;;;;;5014163;28;20541;-86
2022/08/27 02:55:21;;;;;;;73.07;41.37;;;18.40;99.90;;;;;;5022796;28;20706;-85
2022/08/27 02:57:47;;;;;;;68.33;40.30;;;18.40;99.90;;;;;;5020747;28;20537;-85
2022/08/27 03:00:16;;;;;;;66.70;39.90;;;18.40;99.90;;;;;;5020533;28;20196;-85
2022/08/27 03:02:43;;;;;;;77.10;42.00;;;18.40;99.90;;;;;;5018840;28;20185;-85
2022/08/27 03:05:11;;;;;;;76.83;40.03;;;18.40;99.90;;;;;;5029000;28;20414;-85
2022/08/27 03:07:36;;;;;;;65.17;42.43;;;18.40;99.90;;;;;;5015810;28;20421;-84
2022/08/27 03:10:03;;;;;;;66.47;40.83;;;18.40;99.90;;;;;;5022587;28;20506;-85
2022/08/27 03:12:29;;;;;;;64.40;41.97;;;18.30;99.90;;;;;;5021781;28;20658;-85
2022/08/27 03:14:54;;;;;;;69.53;41.20;;;18.30;99.90;;;;;;5021087;28;20428;-84
2022/08/27 03:20:06;;;;;;;70.13;42.30;;;18.30;99.90;;;;;;5020196;28;20189;-85
2022/08/27 03:22:31;;;;;;;65.00;43.27;;;18.40;99.90;;;;;;5024707;28;20507;-84
2022/08/27 03:24:57;;;;;;;68.37;40.90;;;18.40;99.90;;;;;;5018248;28;20432;-84
2022/08/27 03:27:22;;;;;;;65.87;40.67;;;18.40;99.90;;;;;;5022897;28;20538;-85
2022/08/27 03:29:48;;;;;;;66.43;40.77;;;18.40;99.90;;;;;;5032282;28;20256;-87
2022/08/27 03:32:13;;;;;;;65.10;42.30;;;18.40;99.90;;;;;;5032214;28;20174;-87
2022/08/27 03:34:39;;;;;;;78.40;42.00;;;18.40;99.90;;;;;;5037049;28;20205;-87
2022/08/27 03:37:04;;;;;;;74.00;40.77;;;18.40;99.90;;;;;;5037930;28;20240;-86
2022/08/27 03:39:30;;;;;;;62.50;38.60;;;18.40;99.90;;;;;;5037266;28;20275;-87
2022/08/27 03:41:55;;;;;;;62.70;39.33;;;18.40;99.90;;;;;;5036726;28;20174;-87
2022/08/27 03:44:22;;;;;;;57.70;36.57;;;18.40;99.90;;;;;;5035961;28;20162;-87
2022/08/27 03:46:50;;;;;;;60.23;36.80;;;18.50;99.90;;;;;;5036490;28;20174;-87
2022/08/27 03:49:17;;;;;;;63.27;40.60;;;19.70;99.90;;;;;;5037522;28;20507;-86
2022/08/27 03:51:42;;;;;;;68.27;40.67;;;18.50;99.90;;;;;;5036263;28;20428;-86
2022/08/27 03:54:09;;;;;;;70.63;39.30;;;18.50;99.90;;;;;;5037541;28;20420;-86
2022/08/27 03:56:38;;;;;;;70.03;40.90;;;18.50;99.90;;;;;;5035192;28;20190;-86
2022/08/27 03:59:04;;;;;;;70.60;40.93;;;18.50;99.90;;;;;;5036973;28;20456;-86
2022/08/27 04:01:30;;;;;;;72.33;42.30;;;18.50;99.90;;;;;;5037559;28;20837;-87
2022/08/27 04:03:56;;;;;;;69.53;43.73;;;18.50;99.90;;;;;;5037373;28;20932;-87
2022/08/27 04:06:21;;;;;;;68.33;42.50;;;18.50;99.90;;;;;;5036337;28;20712;-87
2022/08/27 04:08:47;;;;;;;66.07;42.37;;;22.30;99.90;;;;;;5036010;28;20189;-87
2022/08/27 04:11:13;;;;;;;81.47;43.23;;;18.50;99.90;;;;;;5037777;28;20170;-87
2022/08/27 04:13:39;;;;;;;88.23;45.73;;;18.40;99.90;;;;;;5035862;28;20181;-87
2022/08/27 04:16:05;;;;;;;69.73;42.87;;;18.40;99.90;;;;;;5035637;28;20212;-86
2022/08/27 04:18:32;;;;;;;78.03;46.92;;;18.40;99.90;;;;;;5035403;28;20439;-87
2022/08/27 04:21:10;;;;;;;77.37;45.80;;;18.30;99.90;;;;;;5033801;28;20260;-86
2022/08/27 04:23:36;;;;;;;75.83;44.57;;;18.30;99.90;;;;;;5035709;28;20630;-86
2022/08/27 04:26:04;;;;;;;70.87;39.00;;;18.40;99.90;;;;;;5035658;28;20404;-87
2022/08/27 04:28:29;;;;;;;75.53;45.47;;;19.00;99.90;;;;;;5034894;28;20520;-86
2022/08/27 04:30:55;;;;;;;71.47;40.40;;;18.40;99.90;;;;;;5034110;28;20432;-86
2022/08/27 04:33:20;;;;;;;79.30;43.80;;;18.40;99.90;;;;;;5034545;28;20170;-86
2022/08/27 04:35:46;;;;;;;67.00;41.10;;;18.40;99.90;;;;;;5033423;28;20551;-87
2022/08/27 04:38:11;;;;;;;69.10;42.50;;;18.40;99.90;;;;;;5034073;28;20212;-86
2022/08/27 04:43:22;;;;;;;72.90;41.50;;;18.40;99.90;;;;;;5035467;28;20269;-86
2022/08/27 04:45:49;;;;;;;64.10;41.33;;;18.40;99.90;;;;;;5034452;28;20448;-86
2022/08/27 04:48:16;;;;;;;73.10;40.87;;;18.40;99.90;;;;;;5034408;28;20431;-87
2022/08/27 04:50:43;;;;;;;67.27;40.43;;;18.40;99.90;;;;;;5033721;28;20444;-86
2022/08/27 04:53:10;;;;;;;69.63;38.97;;;18.40;99.90;;;;;;5033886;28;20447;-87
2022/08/27 04:55:44;;;;;;;67.00;43.07;;;18.40;99.90;;;;;;5035364;28;21077;-86
2022/08/27 04:58:10;;;;;;;71.03;41.83;;;18.40;99.90;;;;;;5033928;28;20568;-85
2022/08/27 05:01:02;;;;;;;61.90;40.10;;;18.40;99.90;;;;;;5034491;28;20416;-86
2022/08/27 05:03:28;;;;;;;64.13;39.40;;;18.30;99.90;;;;;;5031308;28;20436;-86
2022/08/27 05:06:01;;;;;;;88.10;43.60;;;18.40;99.90;;;;;;5034870;28;20873;-86
2022/08/27 05:08:27;;;;;;;69.40;40.77;;;18.40;99.90;;;;;;5034495;28;20194;-87
2022/08/27 05:10:52;;;;;;;60.13;41.97;;;18.40;99.90;;;;;;5034926;28;20439;-86
2022/08/27 05:13:20;;;;;;;70.20;42.13;;;18.40;99.90;;;;;;5033675;28;20545;-85
2022/08/27 05:15:46;;;;;;;78.50;44.10;;;18.40;99.90;;;;;;5035515;28;20176;-87
2022/08/27 05:18:12;;;;;;;78.70;44.53;;;18.40;99.90;;;;;;5034506;28;20460;-86
2022/08/27 05:20:44;;;;;;;81.27;43.27;;;18.40;99.90;;;;;;5033601;28;20413;-86
2022/08/27 05:23:11;;;;;;;73.10;42.33;;;18.40;99.90;;;;;;5033732;28;21130;-87
2022/08/27 05:25:38;;;;;;;79.10;44.97;;;18.40;99.90;;;;;;5034980;28;20417;-84
2022/08/27 05:28:04;;;;;;;73.50;43.90;;;18.40;99.90;;;;;;5034000;28;20876;-86
2022/08/27 05:30:35;;;;;;;76.20;45.40;;;18.40;99.90;;;;;;5034194;28;20412;-86
2022/08/27 05:33:00;;;;;;;80.93;44.20;;;18.40;99.90;;;;;;5034929;28;20184;-86
2022/08/27 05:35:25;;;;;;;82.50;46.73;;;18.40;99.90;;;;;;5034228;28;20413;-87
2022/08/27 05:37:51;;;;;;;94.63;48.00;;;18.40;99.90;;;;;;5033640;28;20209;-87
2022/08/27 05:40:17;;;;;;;95.10;50.17;;;18.50;99.90;;;;;;5035358;28;20166;-86
2022/08/27 05:42:42;;;;;;;76.33;46.93;;;18.50;99.90;;;;;;5033946;28;20177;-87
2022/08/27 05:45:08;;;;;;;68.47;46.47;;;18.50;99.90;;;;;;5033976;28;20519;-86
2022/08/27 05:47:34;;;;;;;73.63;45.43;;;18.60;99.90;;;;;;5032827;28;20196;-87
2022/08/27 05:49:59;;;;;;;79.87;47.43;;;18.60;99.90;;;;;;5033636;28;20417;-86
2022/08/27 05:52:25;;;;;;;81.20;47.60;;;18.60;99.90;;;;;;5033434;28;20174;-87
2022/08/27 05:54:50;;;;;;;67.07;41.83;;;18.70;99.90;;;;;;5036049;28;20174;-86
2022/08/27 05:57:16;;;;;;;70.27;42.90;;;18.70;99.90;;;;;;5037091;28;20202;-87
2022/08/27 06:02:26;;;;;;;76.90;43.13;;;18.80;99.90;;;;;;5037962;28;20219;-86
2022/08/27 06:04:52;;;;;;;82.33;43.57;;;18.80;99.90;;;;;;5037711;28;20409;-86
2022/08/27 06:07:18;;;;;;;87.20;46.13;;;18.70;99.90;;;;;;5035885;28;20416;-87
2022/08/27 06:09:43;;;;;;;71.17;42.77;;;18.80;99.90;;;;;;5036768;28;20596;-86
2022/08/27 06:12:09;;;;;;;69.50;42.67;;;18.80;99.90;;;;;;5037713;28;20544;-86
2022/08/27 06:14:35;;;;;;;79.50;45.90;;;18.90;99.90;;;;;;5038024;28;20173;-86
2022/08/27 06:17:02;;;;;;;80.33;44.07;;;18.90;99.90;;;;;;5036914;28;20456;-86
2022/08/27 06:19:28;;;;;;;74.77;45.47;;;19.00;99.90;;;;;;5035885;28;20455;-86
2022/08/27 06:21:53;;;;;;;80.93;43.47;;;19.10;99.90;;;;;;5037348;28;20413;-86
2022/08/27 06:24:19;;;;;;;75.67;43.80;;;19.30;99.90;;;;;;5036106;28;20165;-85
2022/08/27 06:26:44;;;;;;;71.43;44.17;;;19.30;99.90;;;;;;5037792;28;20409;-87
2022/08/27 06:29:11;;;;;;;61.27;41.93;;;19.40;99.90;;;;;;5037405;28;20244;-86
2022/08/27 06:31:37;;;;;;;70.70;42.23;;;19.50;99.90;;;;;;5037095;28;20173;-86
2022/08/27 06:34:05;;;;;;;58.40;39.60;;;19.80;99.90;;;;;;5036691;28;20942;-86
2022/08/27 06:36:32;;;;;;;61.63;40.70;;;19.80;99.90;;;;;;5036080;28;20755;-85
2022/08/27 06:38:58;;;;;;;66.43;39.80;;;19.90;99.90;;;;;;5037440;28;20431;-86
2022/08/27 06:41:26;;;;;;;52.27;35.47;;;20.10;99.90;;;;;;5036630;28;20863;-86
2022/08/27 06:43:52;;;;;;;50.37;36.20;;;20.30;99.90;;;;;;5036000;28;20409;-86
2022/08/27 06:46:20;;;;;;;48.47;36.03;;;20.40;99.90;;;;;;5037502;28;20908;-86
2022/08/27 06:48:48;;;;;;;63.27;33.03;;;20.50;99.90;;;;;;5035688;28;20437;-86
2022/08/27 06:51:18;;;;;;;50.70;33.27;;;20.60;99.90;;;;;;5036514;28;20400;-86
2022/08/27 06:53:46;;;;;;;50.93;35.97;;;20.60;99.90;;;;;;5036663;28;20428;-86
2022/08/27 06:56:13;;;;;;;54.63;35.70;;;20.70;99.90;;;;;;5035248;28;20507;-87
2022/08/27 06:58:40;;;;;;;48.00;35.87;;;20.90;99.90;;;;;;5035298;28;20841;-86
2022/08/27 07:01:18;;;;;;;51.80;36.80;;;20.70;99.90;;;;;;5036893;28;20798;-85
2022/08/27 07:03:44;;;;;;;53.53;35.37;;;20.70;99.90;;;;;;5036368;28;20388;-85
2022/08/27 07:06:11;;;;;;;57.93;39.33;;;20.30;99.90;;;;;;5035770;28;20416;-87
2022/08/27 07:08:38;;;;;;;58.60;34.87;;;20.20;99.90;;;;;;5031424;28;20445;-86
2022/08/27 07:11:04;;;;;;;52.40;36.97;;;20.20;99.90;;;;;;5031699;28;20504;-86
2022/08/27 07:13:30;;;;;;;53.43;36.97;;;20.10;99.90;;;;;;5037131;28;20408;-85
2022/08/27 07:15:56;;;;;;;51.17;35.73;;;20.10;99.90;;;;;;5035466;28;20419;-86
2022/08/27 07:18:22;;;;;;;57.70;39.07;;;20.00;99.90;;;;;;5036773;28;20205;-86
2022/08/27 07:20:50;;;;;;;67.47;36.23;;;19.80;99.90;;;;;;5035207;28;20417;-84
2022/08/27 07:23:16;;;;;;;55.60;37.03;;;19.60;99.90;;;;;;5034928;28;20567;-87
2022/08/27 07:25:42;;;;;;;54.27;37.10;;;19.60;99.90;;;;;;5034742;28;20479;-86
2022/08/27 07:28:07;;;;;;;57.80;37.47;;;19.50;99.90;;;;;;5036138;28;20244;-87
2022/08/27 07:30:33;;;;;;;60.90;38.73;;;19.40;99.90;;;;;;5034863;28;20913;-87
2022/08/27 07:32:59;;;;;;;65.40;43.00;;;19.40;99.90;;;;;;5035434;28;20181;-85
2022/08/27 07:35:24;;;;;;;59.87;40.90;;;19.40;99.90;;;;;;5034674;28;20180;-86
2022/08/27 07:37:50;;;;;;;74.83;42.33;;;19.30;99.90;;;;;;5034585;28;20218;-86
2022/08/27 07:40:16;;;;;;;67.47;42.60;;;19.30;99.90;;;;;;5035641;28;20196;-87
2022/08/27 07:45:27;;;;;;;68.57;41.97;;;19.30;99.90;;;;;;5035893;28;20584;-87
2022/08/27 07:47:53;;;;;;;69.67;41.70;;;19.30;99.90;;;;;;5034571;28;20459;-86
2022/08/27 07:50:20;;;;;;;73.40;41.20;;;19.20;99.90;;;;;;5036283;28;20408;-87
2022/08/27 07:52:46;;;;;;;76.80;45.00;;;19.30;99.90;;;;;;5035606;28;20496;-87
2022/08/27 07:55:13;;;;;;;75.17;44.43;;;19.30;99.90;;;;;;5034865;28;20445;-87
2022/08/27 07:57:39;;;;;;;67.53;42.60;;;19.30;99.90;;;;;;5035968;28;20455;-87
2022/08/27 08:00:08;;;;;;;64.80;43.27;;;19.30;99.90;;;;;;5035623;28;20412;-85
2022/08/27 08:02:34;;;;;;;65.30;42.37;;;19.40;99.90;;;;;;5034438;28;20411;-87
2022/08/27 08:04:59;;;;;;;70.23;42.23;;;19.50;99.90;;;;;;5033894;28;20499;-87
2022/08/27 08:07:25;;;;;;;64.23;40.60;;;;;;;;;;5034344;28;20173;-87
2022/08/27 08:09:51;;;;;;;63.13;42.47;;;19.60;99.90;;;;;;5034986;28;20220;-87
2022/08/27 08:12:17;;;;;;;55.83;38.40;;;19.80;99.90;;;;;;5033834;28;20959;-86
2022/08/27 08:14:42;;;;;;;58.27;38.70;;;19.80;99.90;;;;;;5033439;28;20174;-87
2022/08/27 08:17:08;;;;;;;59.10;38.43;;;19.80;99.90;;;;;;5033270;28;20198;-87
2022/08/27 08:19:34;;;;;;;63.97;39.00;;;;;;;;;;5035892;28;20225;-86
2022/08/27 08:22:00;;;;;;;63.70;39.20;;;19.80;99.90;;;;;;5035204;28;20208;-87
2022/08/27 08:24:25;;;;;;;71.40;41.80;;;19.80;99.90;;;;;;5033685;28;20889;-86
2022/08/27 08:26:51;;;;;;;74.87;42.07;;;19.80;99.90;;;;;;5034800;28;20193;-87
2022/08/27 08:29:17;;;;;;;64.67;42.10;;;19.80;99.90;;;;;;5034992;28;20460;-86
2022/08/27 08:31:42;;;;;;;64.07;41.83;;;19.70;99.90;;;;;;5033610;28;20426;-85
2022/08/27 08:34:08;;;;;;;62.50;43.00;;;19.80;99.90;;;;;;5034564;28;20698;-86
2022/08/27 08:36:34;;;;;;;62.27;43.20;;;19.80;99.90;;;;;;5034490;28;20209;-86
2022/08/27 08:39:00;;;;;;;60.90;39.40;;;19.90;99.90;;;;;;5035840;28;20936;-86
2022/08/27 08:41:50;;;;;;;74.13;38.80;;;19.90;99.90;;;;;;5035748;28;20261;-86
2022/08/27 08:44:31;;;;;;;58.80;38.00;;;20.00;99.90;;;;;;5035469;28;20166;-87
2022/08/27 08:47:15;;;;;;;58.03;38.10;;;20.00;99.90;;;;;;5033605;28;20448;-87
2022/08/27 08:49:50;;;;;;;60.60;38.13;;;20.00;99.90;;;;;;5033017;28;20447;-86
2022/08/27 08:52:16;;;;;;;56.00;38.67;;;20.10;99.90;;;;;;5033927;28;20405;-87
2022/08/27 08:54:43;;;;;;;58.77;36.10;;;20.30;99.90;;;;;;5034830;28;20408;-86
2022/08/27 08:57:33;;;;;;;44.37;32.97;;;20.50;99.90;;;;;;5035871;28;20193;-87
2022/08/27 09:00:06;;;;;;;56.77;35.53;;;20.70;99.90;;;;;;5034509;28;20435;-85
2022/08/27 09:02:31;;;;;;;55.83;37.27;;;20.80;99.90;;;;;;5035655;28;20733;-86
2022/08/27 09:05:01;;;;;;;53.13;33.90;;;20.80;99.90;;;;;;5034396;28;20542;-87
2022/08/27 09:07:49;;;;;;;50.33;34.50;;;21.20;99.90;;;;;;5034778;28;20165;-86
2022/08/27 09:10:30;;;;;;;53.50;36.50;;;21.20;99.90;;;;;;5034047;28;20408;-87
2022/08/27 09:13:00;;;;;;;53.80;34.13;;;21.60;99.90;;;;;;5035320;28;20396;-87
2022/08/27 09:15:30;;;;;;;44.50;30.37;;;21.80;99.90;;;;;;5033752;28;20428;-85
2022/08/27 09:18:11;;;;;;;38.43;30.30;;;21.90;99.90;;;;;;5034834;28;20960;-87
2022/08/27 09:20:38;;;;;;;41.50;30.50;;;22.00;99.90;;;;;;5035132;28;20412;-87
2022/08/27 09:23:18;;;;;;;43.90;32.20;;;22.30;99.90;;;;;;5034923;28;20408;-86
2022/08/27 09:25:44;;;;;;;36.83;28.70;;;22.50;99.90;;;;;;5034513;28;20396;-87
2022/08/27 09:31:05;;;;;;;43.80;28.47;;;23.00;99.90;;;;;;5036781;28;20424;-83
2022/08/27 09:33:30;;;;;;;36.90;28.20;;;23.00;99.90;;;;;;5028356;28;20479;-83
2022/08/27 09:36:02;;;;;;;45.03;28.03;;;23.00;99.90;;;;;;5028968;28;20419;-83
2022/08/27 09:38:30;;;;;;;44.10;26.73;;;22.90;99.90;;;;;;5027605;28;20598;-83
2022/08/27 09:41:00;;;;;;;34.20;26.13;;;23.10;99.90;;;;;;5027117;28;20445;-84
2022/08/27 09:43:28;;;;;;;39.43;28.57;;;23.80;99.90;;;;;;5028120;28;20421;-83
2022/08/27 09:46:00;;;;;;;36.57;27.07;;;24.00;99.90;;;;;;5029943;28;20454;-82
2022/08/27 09:48:32;;;;;;;34.43;25.30;;;23.90;99.90;;;;;;5027467;28;20490;-84
2022/08/27 09:51:01;;;;;;;30.47;25.13;;;24.30;99.90;;;;;;5027096;28;20408;-86
2022/08/27 09:53:59;;;;;;;34.23;27.20;;;24.90;99.90;;;;;;5026093;28;20447;-84
2022/08/27 09:56:32;;;;;;;32.30;26.70;;;24.30;99.90;;;;;;5025351;28;20443;-85
2022/08/27 09:59:08;;;;;;;29.40;24.47;;;24.10;99.90;;;;;;5038625;28;20432;-84
2022/08/27 10:01:47;;;;;;;36.00;25.47;;;24.40;99.90;;;;;;5041516;28;20400;-84
2022/08/27 10:04:15;;;;;;;35.07;26.10;;;24.10;99.90;;;;;;5036996;28;21214;-84
2022/08/27 10:06:46;;;;;;;41.90;24.47;;;24.50;99.90;;;;;;5027306;28;20522;-84
2022/08/27 10:09:20;;;;;;;33.23;24.43;;;25.20;99.90;;;;;;5028426;28;20982;-83
2022/08/27 10:12:03;;;;;;;30.03;24.97;;;24.90;99.90;;;;;;5025731;28;20409;-85
2022/08/27 10:14:41;;;;;;;42.73;27.30;;;24.50;99.90;;;;;;5030432;28;20500;-84
2022/08/27 10:17:16;;;;;;;35.97;25.03;;;24.10;99.90;;;;;;5029238;28;20448;-83
2022/08/27 10:20:10;;;;;;;35.33;25.70;;;23.70;99.90;;;;;;5027332;28;20470;-83
2022/08/27 10:22:46;;;;;;;36.00;26.93;;;23.70;99.90;;;;;;5034996;28;20872;-84
2022/08/27 10:25:37;;;;;;;34.83;25.07;;;23.80;99.90;;;;;;5028318;28;20471;-84
2022/08/27 10:28:05;;;;;;;30.27;24.57;;;23.70;99.90;;;;;;5024789;28;20861;-85
2022/08/27 10:30:41;;;;;;;35.53;24.33;;;23.80;99.90;;;;;;5030503;28;20412;-85
2022/08/27 10:33:31;;;;;;;39.33;28.93;;;23.70;99.90;;;;;;5027471;28;20416;-85
2022/08/27 10:36:05;;;;;;;37.53;26.60;;;23.50;99.90;;;;;;5025185;28;20883;-84
2022/08/27 10:38:52;;;;;;;34.83;26.43;;;23.40;99.90;;;;;;5029971;28;20540;-85
2022/08/27 10:41:29;;;;;;;37.80;27.43;;;23.20;99.90;;;;;;5026248;28;20417;-82
2022/08/27 10:44:27;;;;;;;37.53;28.27;;;22.80;99.90;;;;;;5026465;28;20432;-86
2022/08/27 10:47:25;;;;;;;42.10;28.37;;;22.60;99.90;;;;;;5028453;28;20429;-83
2022/08/27 10:50:01;;;;;;;45.53;30.10;;;22.20;99.90;;;;;;5034386;28;20985;-85
2022/08/27 10:53:09;;;;;;;45.73;29.40;;;22.00;99.90;;;;;;5017890;28;20377;-84
2022/08/27 10:55:41;;;;;;;43.67;29.17;;;21.90;99.90;;;;;;5023751;28;20478;-84
2022/08/27 10:58:39;;;;;;;46.33;29.60;;;22.10;99.90;;;;;;5018458;28;21646;-84
2022/08/27 11:01:19;;;;;;;43.57;28.97;;;22.40;99.90;;;;;;5018858;28;20413;-84
2022/08/27 11:03:48;;;;;;;45.10;28.13;;;22.60;99.90;;;;;;5025650;28;20857;-84
2022/08/27 11:06:14;;;;;;;36.53;26.50;;;22.90;99.90;;;;;;5026563;28;20413;-83
2022/08/27 11:08:48;;;;;;;35.93;26.37;;;23.10;99.90;;;;;;5025548;28;20451;-82
2022/08/27 11:11:24;;;;;;;37.43;25.60;;;23.10;99.90;;;;;;5027271;28;20284;-84
2022/08/27 11:13:52;;;;;;;34.07;26.20;;;23.40;99.90;;;;;;5022741;28;20432;-84
2022/08/27 11:16:31;;;;;;;33.07;26.33;;;23.80;99.90;;;;;;5018888;28;20788;-84
2022/08/27 11:19:11;;;;;;;34.47;25.27;;;23.60;99.90;;;;;;5018069;28;20430;-84
2022/08/27 11:21:40;;;;;;;32.63;25.13;;;23.70;99.90;;;;;;5033590;28;20448;-82
2022/08/27 11:24:31;;;;;;;37.07;23.93;;;23.90;99.90;;;;;;5023964;28;20464;-84
2022/08/27 11:27:02;;;;;;;33.80;23.50;;;24.00;99.90;;;;;;5023310;28;20938;-84
2022/08/27 11:29:44;;;;;;;31.43;23.23;;;24.00;99.90;;;;;;5024053;28;20468;-80
2022/08/27 11:32:36;;;;;;;31.97;24.13;;;24.50;99.90;;;;;;5037223;28;20513;-83
2022/08/27 11:35:17;;;;;;;31.10;23.67;;;24.60;99.90;;;;;;5027066;28;20444;-83
2022/08/27 11:38:18;;;;;;;29.53;22.17;;;25.20;99.90;;;;;;5022762;28;20475;-84
2022/08/27 11:41:32;;;;;;;36.33;23.57;;;25.10;99.90;;;;;;5025898;28;20417;-83
2022/08/27 11:43:58;;;;;;;31.10;24.27;;;24.70;99.90;;;;;;5017672;28;20492;-84
2022/08/27 11:46:27;;;;;;;27.53;22.73;;;24.40;99.90;;;;;;5028996;28;21214;-85
2022/08/27 11:48:59;;;;;;;32.87;23.63;;;24.30;99.90;;;;;;5036331;28;20429;-84
2022/08/27 11:51:34;;;;;;;36.53;25.23;;;24.20;99.90;;;;;;5034313;28;20482;-85
2022/08/27 11:54:21;;;;;;;39.20;24.30;;;23.90;99.90;;;;;;5036200;28;20388;-85
2022/08/27 11:56:47;;;;;;;30.50;24.97;;;24.00;99.90;;;;;;5033791;28;20484;-81
2022/08/27 11:59:25;;;;;;;30.47;23.07;;;23.80;99.90;;;;;;5032463;28;20436;-84
2022/08/27 12:01:52;;;;;;;35.50;25.33;;;24.30;99.90;;;;;;5025958;28;20206;-84
2022/08/27 12:04:23;;;;;;;30.03;24.10;;;24.70;99.90;;;;;;5028217;28;20438;-84
2022/08/27 12:07:12;;;;;;;43.53;26.47;;;24.50;99.90;;;;;;5024751;28;20809;-83
2022/08/27 12:10:05;;;;;;;29.80;25.03;;;23.80;99.90;;;;;;5014872;28;20486;-84
2022/08/27 12:12:51;;;;;;;34.17;25.37;;;23.70;99.90;;;;;;5021761;28;20440;-84
2022/08/27 12:15:21;;;;;;;34.60;24.00;;;23.40;99.90;;;;;;5021411;28;20425;-84
2022/08/27 12:18:02;;;;;;;42.67;25.97;;;23.90;99.90;;;;;;5029950;28;20457;-82
2022/08/27 12:20:34;;;;;;;31.83;25.07;;;23.90;99.90;;;;;;5023552;28;20416;-83
2022/08/27 12:23:39;;;;;;;38.00;25.90;;;24.00;99.90;;;;;;5021701;28;20503;-84
2022/08/27 12:26:30;;;;;;;36.87;26.90;;;23.60;99.90;;;;;;5026547;28;20436;-85
2022/08/27 12:29:23;;;;;;;37.20;27.00;;;23.30;99.90;;;;;;5034845;28;20446;-82
2022/08/27 12:31:53;;;;;;;35.80;25.60;;;22.80;99.90;;;;;;5022459;28;20438;-85
2022/08/27 12:34:24;;;;;;;39.57;29.93;;;22.80;99.90;;;;;;5023172;28;20432;-84
2022/08/27 12:36:52;;;;;;;35.97;27.70;;;22.90;99.90;;;;;;5022237;28;20637;-85
2022/08/27 12:39:26;;;;;;;34.70;26.63;;;23.10;99.90;;;;;;5021371;28;20445;-85
2022/08/27 12:41:52;;;;;;;33.63;25.80;;;23.10;99.90;;;;;;5023710;28;20436;-84
2022/08/27 12:44:30;;;;;;;29.03;21.90;;;22.90;99.90;;;;;;5018330;28;20436;-82
2022/08/27 12:47:03;;;;;;;28.37;20.57;;;22.40;99.90;;;;;;5034206;28;20435;-84
2022/08/27 12:49:41;;;;;;;30.20;21.10;;;22.10;99.90;;;;;;5020503;28;20991;-83
2022/08/27 12:52:35;;;;;;;28.10;23.20;;;22.10;99.90;;;;;;5017133;28;20440;-83
2022/08/27 12:55:12;;;;;;;31.03;24.33;;;22.50;99.90;;;;;;5017798;28;20450;-85
2022/08/27 12:57:46;;;;;;;32.40;23.87;;;22.90;99.90;;;;;;5018780;28;20947;-84
2022/08/27 13:00:18;;;;;;;29.83;25.40;;;23.00;99.90;;;;;;5018052;28;20433;-84